메인 페이지
METAR-TAF:

METAR-TAF

공항 :

코모도로 아르투로 메리노 베니테스 국제공항

산티아고, 칠레

위도: 33-23S, 경도: 070-47W, 고도: 475m

현재 날씨관측

예보는 1 시간 8분 전, 21:00시(UTC)에 발표되었습니다.
남남서10kt
온도 18°C
습도 52%
기압 1022 hPa
시정 10km 이상
1500m 미만 상공 구름 및 적란운 없음

METAR: SCEL 012100Z 21010KT CAVOK 18/08 Q1022 NOSIG

시각: 18:08 (22:08 UTC)

예보

예보는 5 시간 29분 전, 16:39시(UTC)에 발표되었습니다.
예보 대상 시간: 01일 18시부터 02일 18시까지 (UTC)
남남서10kt
시정 10km 이상
1500m 미만 상공 구름 및 적란운 없음
일시적
01일 18시부터 01일 23시까지 (UTC)
시정: 8000m
고도 8000ft 상공 구름 조금
전환 중
02일 02시부터 02일 04시까지 (UTC)
남남동4kt
시정: 6000m
전환 중
02일 05시부터 02일 07시까지 (UTC)
고도 18000ft 상공 구름 많음
전환 중
02일 16시부터 02일 18시까지 (UTC)
5kt
시정 10km 이상
고도 14000ft 상공 구름 많음

TAF: SCEL 011639Z 0118/0218 20010KT CAVOK TX20/0118Z TN08/0210Z TEMPO 0118/0123 8000 FEW080 BECMG 0202/0204 16004KT 6000 NSC BECMG 0205/0207 BKN180 BECMG 0216/0218 18005KT 9999 BKN140

4,000개 이상의 공항 관측 자료 및 예보 (METAR 및 TAF 보고).

지도상에서 검색 가능한 기상관측소가 노란 점과 빨간 점으로 표시되어 있습니다.

기상관측소 명을 보려면 표시 위로 마우스를 이동하세요.

날씨 관측과 예보를 보려면 클릭하세요.

지도 변경 : 확대하려면 엑스 표시가 있는 녹색 버튼, 축소하려면 빼기 표시가 있는 녹색 버튼, 다음 페이지의 지도를 보려면 녹색 화살표를 클릭하세요.


METAR-TAF: